createdAt,value
2022-08-23T00:00:30.329Z,66.3
2022-08-23T00:05:34.901Z,66.7
2022-08-23T00:10:39.431Z,66.6
2022-08-23T00:15:42.951Z,67.2
2022-08-23T00:20:47.501Z,68
2022-08-23T00:25:52.062Z,68.7
2022-08-23T00:30:55.570Z,69.4
2022-08-23T00:36:00.131Z,69.8
2022-08-23T00:41:04.651Z,70
2022-08-23T00:46:08.212Z,70
2022-08-23T00:51:12.739Z,69.3
2022-08-23T00:56:17.284Z,69
2022-08-23T01:01:21.851Z,68.8
2022-08-23T01:06:25.375Z,69.7
2022-08-23T01:11:29.908Z,70.3
2022-08-23T01:16:34.412Z,70.4
2022-08-23T01:21:38.001Z,70.4
2022-08-23T01:26:42.561Z,71.4
2022-08-23T01:31:47.070Z,71.6
2022-08-23T01:36:50.583Z,71.5
2022-08-23T01:41:55.155Z,71.9
2022-08-23T01:46:59.669Z,71.9
2022-08-23T01:52:03.231Z,71.4
2022-08-23T01:57:07.748Z,70.7
2022-08-23T02:02:12.289Z,70
2022-08-23T02:07:16.792Z,69.5
2022-08-23T02:12:20.354Z,68.3
2022-08-23T02:17:24.945Z,67.8
2022-08-23T02:22:29.457Z,68.1
2022-08-23T02:27:32.978Z,68.8
2022-08-23T02:32:37.556Z,69.1
2022-08-23T02:37:42.102Z,69.2
2022-08-23T02:42:45.635Z,69.2
2022-08-23T02:47:50.211Z,69.2
2022-08-23T02:52:53.707Z,68.6
2022-08-23T02:57:58.394Z,67.7
2022-08-23T03:03:02.790Z,66.8
2022-08-23T03:08:06.347Z,66.4
2022-08-23T03:13:10.884Z,66
2022-08-23T03:18:15.434Z,66.5
2022-08-23T03:23:18.976Z,67.1
2022-08-23T03:28:23.510Z,66.9
2022-08-23T03:33:27.989Z,66.9
2022-08-23T03:38:31.557Z,66.7
2022-08-23T03:43:36.124Z,66.8
2022-08-23T03:48:40.613Z,67
2022-08-23T03:53:45.178Z,67.1
2022-08-23T03:58:48.691Z,67.2
2022-08-23T04:03:53.236Z,67.5
2022-08-23T04:08:57.787Z,67.7
2022-08-23T04:14:01.306Z,67.9
2022-08-23T04:19:05.866Z,68.6
2022-08-23T04:24:10.382Z,68.9
2022-08-23T04:29:13.945Z,69.5
2022-08-23T04:34:20.232Z,69.8
2022-08-23T04:39:22.982Z,69.5
2022-08-23T04:44:26.576Z,69.5
2022-08-23T04:49:31.079Z,69.8
2022-08-23T04:54:35.629Z,69.7
2022-08-23T04:59:40.149Z,69.1
2022-08-23T05:04:43.736Z,68.3
2022-08-23T05:09:48.233Z,67.7
2022-08-23T05:14:52.751Z,67.1
2022-08-23T05:19:56.308Z,67.3
2022-08-23T05:25:00.855Z,68.3
2022-08-23T05:30:05.403Z,68.5
2022-08-23T05:35:08.939Z,68.2
2022-08-23T05:40:13.554Z,68.8
2022-08-23T05:45:21.163Z,68.3
2022-08-23T05:50:21.549Z,67.9
2022-08-23T05:55:34.824Z,67.4
2022-08-23T06:00:38.053Z,67
2022-08-23T06:05:35.169Z,66.7
2022-08-23T06:10:42.124Z,66.1
2022-08-23T06:15:43.258Z,64.9
2022-08-23T06:20:47.846Z,64.1
2022-08-23T06:25:51.336Z,64.2
2022-08-23T06:30:55.978Z,63
2022-08-23T06:36:00.384Z,62.6
2022-08-23T06:41:03.994Z,62
2022-08-23T06:46:08.527Z,61.7
2022-08-23T06:51:13.024Z,61.7
2022-08-23T06:56:16.540Z,61.7
2022-08-23T07:01:44.134Z,61.6
2022-08-23T07:06:24.684Z,61.4
2022-08-23T07:11:29.219Z,60.5
2022-08-23T07:16:33.777Z,60.2
2022-08-23T07:21:37.282Z,60
2022-08-23T07:26:41.811Z,59.5
2022-08-23T07:31:46.414Z,59
2022-08-23T07:36:49.910Z,57.5
2022-08-23T07:41:54.464Z,57.1
2022-08-23T07:47:00.662Z,57.3
2022-08-23T07:52:03.503Z,55.8
2022-08-23T07:57:07.069Z,56
2022-08-23T08:02:11.692Z,56.5
2022-08-23T08:07:21.111Z,54.9
2022-08-23T08:12:19.687Z,56.3
2022-08-23T08:17:27.399Z,54
2022-08-23T08:22:28.768Z,52.2
2022-08-23T08:27:32.311Z,52.1
2022-08-23T08:32:36.882Z,51.6
2022-08-23T08:37:41.376Z,51.1
2022-08-23T08:42:44.931Z,50.5
2022-08-23T08:47:49.468Z,50.8
2022-08-23T08:52:54.025Z,49.3
2022-08-23T08:57:58.628Z,49.3
2022-08-23T09:03:02.152Z,49.9
2022-08-23T09:08:06.646Z,47.9
2022-08-23T09:13:11.454Z,48.3
2022-08-23T09:18:14.738Z,48.7
2022-08-23T09:23:19.270Z,47.9
2022-08-23T09:28:23.810Z,47.7
2022-08-23T09:33:27.336Z,47.5
2022-08-23T09:38:31.906Z,48.1
2022-08-23T09:43:36.424Z,46
2022-08-23T09:48:40.000Z,43.3
2022-08-23T09:53:44.538Z,42.8
2022-08-23T09:58:49.083Z,44.1
2022-08-23T10:03:53.592Z,46.2
2022-08-23T10:08:57.156Z,46.4
2022-08-23T10:14:01.687Z,46
2022-08-23T10:19:06.275Z,44.5
2022-08-23T10:24:09.840Z,45.5
2022-08-23T10:29:14.370Z,44.2
2022-08-23T10:34:18.909Z,42.6
2022-08-23T10:39:22.432Z,42.1
2022-08-23T10:44:26.988Z,46.3
2022-08-23T10:49:31.514Z,43.2
2022-08-23T10:54:35.127Z,44
2022-08-23T10:59:39.600Z,42.1
2022-08-23T11:04:44.146Z,42.6
2022-08-23T11:09:48.830Z,41.6
2022-08-23T11:14:52.233Z,41.3
2022-08-23T11:19:55.839Z,42.7
2022-08-23T11:25:00.357Z,43.8
2022-08-23T11:30:04.915Z,40.9
2022-08-23T11:35:08.457Z,43.1
2022-08-23T11:40:17.990Z,39.3
2022-08-23T11:45:17.550Z,38.1
2022-08-23T11:50:22.064Z,38.6
2022-08-23T11:55:25.628Z,37.8
2022-08-23T12:00:30.168Z,38.7
2022-08-23T12:05:34.696Z,38.1
2022-08-23T12:10:38.284Z,42
2022-08-23T12:15:42.864Z,41.4
2022-08-23T12:20:48.565Z,41.2
2022-08-23T12:25:50.913Z,41.8
2022-08-23T12:30:55.537Z,39.8
2022-08-23T12:36:00.014Z,38.7
2022-08-23T12:41:03.568Z,42
2022-08-23T12:46:08.115Z,41.9
2022-08-23T12:51:12.620Z,41.6
2022-08-23T12:56:17.181Z,40.2
2022-08-23T13:01:20.819Z,40.9
2022-08-23T13:06:25.278Z,42.1
2022-08-23T13:11:29.797Z,40.4
2022-08-23T13:16:33.336Z,39.5
2022-08-23T13:21:39.914Z,41.3
2022-08-23T13:26:42.442Z,42.2
2022-08-23T13:31:46.016Z,41.7
2022-08-23T13:36:50.525Z,41.6
2022-08-23T13:41:55.050Z,41.5
2022-08-23T13:46:58.593Z,41
2022-08-23T13:52:33.379Z,40.3
2022-08-23T13:57:07.712Z,39.1
2022-08-23T14:02:12.230Z,39.2
2022-08-23T14:07:15.759Z,39.3
2022-08-23T14:12:21.279Z,39.5
2022-08-23T14:17:24.924Z,41.1
2022-08-23T14:22:28.395Z,40.7
2022-08-23T14:27:32.989Z,40.9
2022-08-23T14:32:37.483Z,41.1
2022-08-23T14:42:45.553Z,40.6
2022-08-23T14:47:50.120Z,40.4
2022-08-23T14:52:53.654Z,41.4
2022-08-23T14:57:58.164Z,42.7
2022-08-23T15:03:07.519Z,42.8
2022-08-23T15:08:07.240Z,42
2022-08-23T15:13:20.973Z,41.4
2022-08-23T15:18:15.353Z,39.2
2022-08-23T15:23:19.891Z,39.4
2022-08-23T15:28:23.413Z,38.9
2022-08-23T15:33:31.394Z,40.3
2022-08-23T15:38:31.547Z,39.8
2022-08-23T15:43:36.045Z,40
2022-08-23T15:48:40.594Z,40.1
2022-08-23T15:53:44.178Z,42.5
2022-08-23T15:58:48.689Z,43.1
2022-08-23T16:03:53.235Z,41.7
2022-08-23T16:08:56.759Z,42.1
2022-08-23T16:14:01.308Z,43.4
2022-08-23T16:19:05.891Z,41.4
2022-08-23T16:24:09.388Z,40.9
2022-08-23T16:29:13.925Z,42.5
2022-08-23T16:34:18.496Z,41.8
2022-08-23T16:39:22.022Z,42.3
2022-08-23T16:44:26.600Z,43.3
2022-08-23T16:49:31.140Z,44
2022-08-23T16:54:35.669Z,43.9
2022-08-23T16:59:40.663Z,43.5
2022-08-23T17:04:43.721Z,42.7
2022-08-23T17:09:48.295Z,44.2
2022-08-23T17:14:51.809Z,45.1
2022-08-23T17:19:56.374Z,45.5
2022-08-23T17:25:00.942Z,45.9
2022-08-23T17:30:04.458Z,46.5
2022-08-23T17:35:12.778Z,47
2022-08-23T17:40:13.573Z,47.5
2022-08-23T17:45:17.057Z,48.8
2022-08-23T17:50:21.633Z,48.9
2022-08-23T17:55:26.188Z,49.9
2022-08-23T18:00:30.664Z,51
2022-08-23T18:05:34.264Z,51.9
2022-08-23T18:10:38.774Z,52.2
2022-08-23T18:15:43.286Z,52.6
2022-08-23T18:20:46.825Z,53.8
2022-08-23T18:25:51.364Z,54.1
2022-08-23T18:30:55.914Z,55.3
2022-08-23T18:35:59.459Z,55.8
2022-08-23T18:41:04.018Z,56.6
2022-08-23T18:46:08.599Z,57.4
2022-08-23T18:51:17.951Z,58.1
2022-08-23T18:56:16.609Z,58.5
2022-08-23T19:01:21.232Z,58.7
2022-08-23T19:06:25.686Z,59.4
2022-08-23T19:11:29.235Z,60.1
2022-08-23T19:16:33.855Z,60.3
2022-08-23T19:21:38.283Z,60.5
2022-08-23T19:26:41.823Z,60.7
2022-08-23T19:31:46.447Z,60.8
2022-08-23T19:36:59.108Z,60.8
2022-08-23T19:41:54.468Z,61
2022-08-23T19:46:58.972Z,61.1
2022-08-23T19:52:02.531Z,61.3
2022-08-23T19:57:07.059Z,61.6
2022-08-23T20:02:11.623Z,61.9
2022-08-23T20:07:15.162Z,62.1
2022-08-23T20:12:19.693Z,62.5
2022-08-23T20:17:24.253Z,62.8
2022-08-23T20:22:27.788Z,62.7
2022-08-23T20:27:32.326Z,62.9
2022-08-23T20:32:36.836Z,62.9
2022-08-23T20:37:40.403Z,63
2022-08-23T20:42:44.923Z,63.3
2022-08-23T20:47:49.473Z,63.3
2022-08-23T20:52:53.985Z,63.3
2022-08-23T20:57:57.562Z,63.5
2022-08-23T21:03:02.232Z,64.1
2022-08-23T21:08:06.635Z,64.3
2022-08-23T21:13:10.640Z,64.1
2022-08-23T21:18:14.720Z,64.3
2022-08-23T21:23:19.255Z,64.1
2022-08-23T21:28:22.817Z,64.1
2022-08-23T21:33:27.307Z,64.2
2022-08-23T21:38:31.830Z,64.3
2022-08-23T21:43:35.450Z,64.7
2022-08-23T21:48:39.931Z,64.6
2022-08-23T21:53:44.448Z,64.1
2022-08-23T21:58:50.692Z,64.1
2022-08-23T22:03:56.795Z,64.4
2022-08-23T22:08:57.094Z,64.3
2022-08-23T22:14:01.594Z,64
2022-08-23T22:19:05.185Z,64.3
2022-08-23T22:24:09.706Z,64.1
2022-08-23T22:29:14.234Z,64.5
2022-08-23T22:34:17.817Z,64.7
2022-08-23T22:39:22.306Z,65.4
2022-08-23T22:44:26.826Z,65.9
2022-08-23T22:49:30.889Z,66.3
2022-08-23T22:54:34.961Z,66.2
2022-08-23T22:59:39.507Z,66.9
2022-08-23T23:04:43.998Z,67.4
2022-08-23T23:09:47.562Z,67.5
2022-08-23T23:14:52.082Z,68.2
2022-08-23T23:22:28.896Z,68.4
2022-08-23T23:27:32.471Z,69.5
2022-08-23T23:32:36.943Z,72.7
2022-08-23T23:37:41.479Z,72
2022-08-23T23:42:45.069Z,72.8
2022-08-23T23:47:49.606Z,72.9
2022-08-23T23:52:54.128Z,72.3
2022-08-23T23:57:57.694Z,72.2
